createdAt,value
2019-02-06T00:00:26.497Z,1020.36
2019-02-06T00:00:51.849Z,1020.37
2019-02-06T00:01:17.953Z,1020.36
2019-02-06T00:01:44.063Z,1020.38
2019-02-06T00:02:10.519Z,1020.34
2019-02-06T00:02:36.622Z,1020.3
2019-02-06T00:03:02.982Z,1020.29
2019-02-06T00:03:29.088Z,1020.28
2019-02-06T00:03:55.279Z,1020.29
2019-02-06T00:04:21.570Z,1020.29
2019-02-06T00:04:47.683Z,1020.28
2019-02-06T00:05:15.765Z,1020.26
2019-02-06T00:05:42.304Z,1020.25
2019-02-06T00:06:08.406Z,1020.26
2019-02-06T00:06:34.731Z,1020.28
2019-02-06T00:07:00.923Z,1020.29
2019-02-06T00:07:27.028Z,1020.27
2019-02-06T00:07:53.396Z,1020.26
2019-02-06T00:08:19.529Z,1020.27
2019-02-06T00:08:45.963Z,1020.28
2019-02-06T00:09:12.264Z,1020.26
2019-02-06T00:09:38.451Z,1020.22
2019-02-06T00:10:04.705Z,1020.23
2019-02-06T00:10:30.815Z,1020.21
2019-02-06T00:10:56.924Z,1020.18
2019-02-06T00:11:23.257Z,1020.2
2019-02-06T00:11:50.351Z,1020.15
2019-02-06T00:12:16.827Z,1020.2
2019-02-06T00:12:42.910Z,1020.2
2019-02-06T00:13:09.022Z,1020.19
2019-02-06T00:13:35.486Z,1020.18
2019-02-06T00:14:01.680Z,1020.21
2019-02-06T00:14:27.813Z,1020.18
2019-02-06T00:14:54.101Z,1020.2
2019-02-06T00:15:20.227Z,1020.22
2019-02-06T00:15:46.686Z,1020.22
2019-02-06T00:16:12.820Z,1020.24
2019-02-06T00:16:38.917Z,1020.24
2019-02-06T00:17:05.392Z,1020.25
2019-02-06T00:17:31.679Z,1020.28
2019-02-06T00:17:57.802Z,1020.27
2019-02-06T00:18:24.601Z,1020.29
2019-02-06T00:18:50.683Z,1020.29
2019-02-06T00:19:16.986Z,1020.27
2019-02-06T00:19:43.197Z,1020.29
2019-02-06T00:20:09.371Z,1020.3
2019-02-06T00:20:35.585Z,1020.3
2019-02-06T00:21:01.687Z,1020.3
2019-02-06T00:21:28.775Z,1020.28
2019-02-06T00:21:55.011Z,1020.28
2019-02-06T00:22:21.114Z,1020.3
2019-02-06T00:22:47.503Z,1020.27
2019-02-06T00:23:13.654Z,1020.31
2019-02-06T00:23:39.783Z,1020.25
2019-02-06T00:24:06.163Z,1020.3
2019-02-06T00:24:32.270Z,1020.31
2019-02-06T00:24:58.579Z,1020.31
2019-02-06T00:25:24.687Z,1020.3
2019-02-06T00:25:50.793Z,1020.28
2019-02-06T00:26:17.260Z,1020.29
2019-02-06T00:26:43.370Z,1020.31
2019-02-06T00:27:09.471Z,1020.26
2019-02-06T00:27:36.023Z,1020.24
2019-02-06T00:28:02.125Z,1020.27
2019-02-06T00:28:28.932Z,1020.25
2019-02-06T00:28:55.043Z,1020.19
2019-02-06T00:29:21.152Z,1020.19
2019-02-06T00:29:47.399Z,1020.18
2019-02-06T00:30:13.498Z,1020.15
2019-02-06T00:30:39.606Z,1020.15
2019-02-06T00:31:05.970Z,1020.11
2019-02-06T00:31:32.076Z,1020.12
2019-02-06T00:31:58.386Z,1020.11
2019-02-06T00:32:24.491Z,1020.14
2019-02-06T00:32:50.598Z,1020.15
2019-02-06T00:33:17.127Z,1020.13
2019-02-06T00:33:43.228Z,1020.1
2019-02-06T00:34:09.623Z,1020.07
2019-02-06T00:34:35.729Z,1020.06
2019-02-06T00:35:01.851Z,1020.08
2019-02-06T00:35:30.167Z,1020.02
2019-02-06T00:35:56.272Z,1020.03
2019-02-06T00:36:22.381Z,1020.04
2019-02-06T00:36:48.784Z,1020.04
2019-02-06T00:37:14.883Z,1020.06
2019-02-06T00:37:41.290Z,1020.1
2019-02-06T00:38:07.432Z,1020.06
2019-02-06T00:38:33.554Z,1020.09
2019-02-06T00:38:59.928Z,1020.07
2019-02-06T00:39:26.138Z,1020.07
2019-02-06T00:39:52.282Z,1020.09
2019-02-06T00:40:18.415Z,1020.08
2019-02-06T00:40:44.522Z,1020.06
2019-02-06T00:41:11.140Z,1020.09
2019-02-06T00:41:37.243Z,1020.08
2019-02-06T00:42:03.351Z,1020.06
2019-02-06T00:42:29.722Z,1020.05
2019-02-06T00:42:55.882Z,1020.1
2019-02-06T00:43:22.216Z,1020.08
2019-02-06T00:43:48.321Z,1020.05
2019-02-06T00:44:14.426Z,1020.06
2019-02-06T00:44:40.830Z,1020.08
2019-02-06T00:45:06.963Z,1020.1
2019-02-06T00:45:33.064Z,1020.11
2019-02-06T00:45:59.521Z,1020.1
2019-02-06T00:46:25.628Z,1020.15
2019-02-06T00:46:52.052Z,1020.12
2019-02-06T00:47:18.168Z,1020.13
2019-02-06T00:47:44.283Z,1020.11
2019-02-06T00:48:10.795Z,1020.07
2019-02-06T00:48:36.903Z,1020.09
2019-02-06T00:49:03.322Z,1020.11
2019-02-06T00:49:29.567Z,1020.09
2019-02-06T00:49:55.709Z,1020.09
2019-02-06T00:50:22.305Z,1020.1
2019-02-06T00:50:48.403Z,1020.07
2019-02-06T00:51:14.539Z,1020.05
2019-02-06T00:51:40.906Z,1020.06
2019-02-06T00:52:07.070Z,1020.02
2019-02-06T00:52:33.490Z,1020.02
2019-02-06T00:52:59.633Z,1020.01
2019-02-06T00:53:25.737Z,1020.04
2019-02-06T00:53:52.131Z,1020.01
2019-02-06T00:54:18.235Z,1020.01
2019-02-06T00:54:44.333Z,1020.02
2019-02-06T00:55:10.733Z,1020.02
2019-02-06T00:55:36.835Z,1020
2019-02-06T00:56:03.209Z,1019.99
2019-02-06T00:56:29.320Z,1020
2019-02-06T00:56:55.424Z,1020.01
2019-02-06T00:57:21.965Z,1020
2019-02-06T00:57:48.099Z,1020
2019-02-06T00:58:14.360Z,1020.01
2019-02-06T00:58:40.640Z,1020.01
2019-02-06T00:59:06.801Z,1020.01
2019-02-06T00:59:32.930Z,1020.02
2019-02-06T00:59:59.032Z,1020.01
2019-02-06T01:00:25.144Z,1019.99
2019-02-06T01:00:51.661Z,1020.02
2019-02-06T01:01:17.782Z,1020.01
2019-02-06T01:01:44.124Z,1019.99
2019-02-06T01:02:10.228Z,1020.01
2019-02-06T01:02:36.335Z,1020
2019-02-06T01:03:02.658Z,1020.01
2019-02-06T01:03:28.795Z,1019.98
2019-02-06T01:03:54.896Z,1020
2019-02-06T01:04:21.441Z,1020.02
2019-02-06T01:04:47.548Z,1019.98
2019-02-06T01:05:14.132Z,1019.94
2019-02-06T01:05:41.242Z,1019.95
2019-02-06T01:06:07.381Z,1019.98
2019-02-06T01:06:33.949Z,1019.94
2019-02-06T01:07:00.078Z,1019.96
2019-02-06T01:07:26.389Z,1019.94
2019-02-06T01:07:52.702Z,1019.92
2019-02-06T01:08:18.811Z,1019.96
2019-02-06T01:08:45.197Z,1019.95
2019-02-06T01:09:11.335Z,1019.96
2019-02-06T01:09:37.439Z,1019.96
2019-02-06T01:10:03.729Z,1019.9
2019-02-06T01:10:29.828Z,1019.9
2019-02-06T01:10:56.223Z,1019.91
2019-02-06T01:11:22.327Z,1019.93
2019-02-06T01:11:48.434Z,1019.89
2019-02-06T01:12:14.901Z,1019.91
2019-02-06T01:12:41.043Z,1019.92
2019-02-06T01:13:07.150Z,1019.89
2019-02-06T01:13:33.516Z,1019.87
2019-02-06T01:13:59.618Z,1019.88
2019-02-06T01:14:26.004Z,1019.85
2019-02-06T01:14:52.110Z,1019.84
2019-02-06T01:15:18.213Z,1019.88
2019-02-06T01:15:44.622Z,1019.83
2019-02-06T01:16:10.719Z,1019.85
2019-02-06T01:16:36.851Z,1019.81
2019-02-06T01:17:03.263Z,1019.82
2019-02-06T01:17:30.359Z,1019.78
2019-02-06T01:17:56.746Z,1019.8
2019-02-06T01:18:22.907Z,1019.79
2019-02-06T01:18:49.018Z,1019.81
2019-02-06T01:19:15.441Z,1019.77
2019-02-06T01:19:41.562Z,1019.79
2019-02-06T01:20:07.998Z,1019.76
2019-02-06T01:20:34.249Z,1019.8
2019-02-06T01:21:00.357Z,1019.75
2019-02-06T01:21:26.567Z,1019.77
2019-02-06T01:21:52.669Z,1019.81
2019-02-06T01:22:18.805Z,1019.8
2019-02-06T01:22:45.136Z,1019.75
2019-02-06T01:23:11.269Z,1019.76
2019-02-06T01:23:37.737Z,1019.74
2019-02-06T01:24:03.838Z,1019.7
2019-02-06T01:24:29.945Z,1019.73
2019-02-06T01:24:56.295Z,1019.7
2019-02-06T01:25:22.400Z,1019.72
2019-02-06T01:25:48.547Z,1019.71
2019-02-06T01:26:14.812Z,1019.72
2019-02-06T01:26:40.910Z,1019.74
2019-02-06T01:27:07.207Z,1019.71
2019-02-06T01:27:33.361Z,1019.74
2019-02-06T01:27:59.467Z,1019.74
2019-02-06T01:28:25.887Z,1019.74
2019-02-06T01:28:51.991Z,1019.76
2019-02-06T01:29:18.099Z,1019.73
2019-02-06T01:29:44.407Z,1019.76
2019-02-06T01:30:10.888Z,1019.76
2019-02-06T01:30:37.522Z,1019.77
2019-02-06T01:31:03.618Z,1019.77
2019-02-06T01:31:29.721Z,1019.79
2019-02-06T01:31:56.225Z,1019.74
2019-02-06T01:32:22.374Z,1019.78
2019-02-06T01:32:48.506Z,1019.73
2019-02-06T01:33:15.033Z,1019.76
2019-02-06T01:33:41.238Z,1019.75
2019-02-06T01:34:07.659Z,1019.75
2019-02-06T01:34:33.765Z,1019.72
2019-02-06T01:34:59.876Z,1019.69
2019-02-06T01:35:26.323Z,1019.73
2019-02-06T01:35:54.402Z,1019.7
2019-02-06T01:36:20.748Z,1019.74
2019-02-06T01:36:46.851Z,1019.74
2019-02-06T01:37:13.029Z,1019.74
2019-02-06T01:37:39.424Z,1019.73
2019-02-06T01:38:05.527Z,1019.69
2019-02-06T01:38:31.652Z,1019.76
2019-02-06T01:38:58.054Z,1019.7
2019-02-06T01:39:24.152Z,1019.69
2019-02-06T01:39:50.632Z,1019.69
2019-02-06T01:40:16.735Z,1019.7
2019-02-06T01:40:42.866Z,1019.66
2019-02-06T01:41:09.361Z,1019.63
2019-02-06T01:41:35.458Z,1019.67
2019-02-06T01:42:01.570Z,1019.68
2019-02-06T01:42:27.959Z,1019.64
2019-02-06T01:42:54.061Z,1019.63
2019-02-06T01:43:20.406Z,1019.62
2019-02-06T01:43:46.514Z,1019.64
2019-02-06T01:44:12.615Z,1019.64
2019-02-06T01:44:38.981Z,1019.62
2019-02-06T01:45:05.084Z,1019.64
2019-02-06T01:45:31.488Z,1019.63
2019-02-06T01:45:57.821Z,1019.64
2019-02-06T01:46:23.926Z,1019.64
2019-02-06T01:46:50.645Z,1019.62
2019-02-06T01:47:16.746Z,1019.67
2019-02-06T01:47:42.872Z,1019.7
2019-02-06T01:48:09.219Z,1019.7
2019-02-06T01:48:35.343Z,1019.69
2019-02-06T01:49:01.767Z,1019.64
2019-02-06T01:49:27.876Z,1019.7
2019-02-06T01:49:53.998Z,1019.69
2019-02-06T01:50:20.339Z,1019.71
2019-02-06T01:50:46.445Z,1019.68
2019-02-06T01:51:12.549Z,1019.67
2019-02-06T01:51:39.122Z,1019.73
2019-02-06T01:52:05.228Z,1019.7
2019-02-06T01:52:31.678Z,1019.72
2019-02-06T01:52:57.857Z,1019.71
2019-02-06T01:53:23.903Z,1019.69
2019-02-06T01:53:50.508Z,1019.73
2019-02-06T01:54:16.668Z,1019.72
2019-02-06T01:54:42.775Z,1019.7
2019-02-06T01:55:09.168Z,1019.74
2019-02-06T01:55:35.265Z,1019.72
2019-02-06T01:56:01.649Z,1019.74
2019-02-06T01:56:27.781Z,1019.74
2019-02-06T01:56:53.881Z,1019.76
2019-02-06T01:57:20.298Z,1019.78
2019-02-06T01:57:46.401Z,1019.75
2019-02-06T01:58:12.790Z,1019.74
2019-02-06T01:58:38.892Z,1019.75
2019-02-06T01:59:05.000Z,1019.68
2019-02-06T01:59:31.526Z,1019.66
2019-02-06T01:59:57.627Z,1019.65
2019-02-06T02:00:23.733Z,1019.59
2019-02-06T02:00:50.217Z,1019.59
2019-02-06T02:01:16.323Z,1019.59
2019-02-06T02:01:42.628Z,1019.6
2019-02-06T02:02:08.763Z,1019.58
2019-02-06T02:02:34.889Z,1019.59
2019-02-06T02:03:01.259Z,1019.55
2019-02-06T02:03:27.368Z,1019.57
2019-02-06T02:03:53.515Z,1019.56
2019-02-06T02:04:19.718Z,1019.56
2019-02-06T02:04:45.828Z,1019.51
2019-02-06T02:05:12.181Z,1019.53
2019-02-06T02:05:38.282Z,1019.55
2019-02-06T02:06:06.368Z,1019.52
2019-02-06T02:06:32.694Z,1019.53
2019-02-06T02:06:58.791Z,1019.52
2019-02-06T02:07:25.151Z,1019.53
2019-02-06T02:07:51.354Z,1019.51
2019-02-06T02:08:17.489Z,1019.51
2019-02-06T02:08:43.817Z,1019.51
2019-02-06T02:09:09.923Z,1019.53
2019-02-06T02:09:36.025Z,1019.5
2019-02-06T02:10:02.411Z,1019.53
2019-02-06T02:10:28.519Z,1019.53
2019-02-06T02:10:54.877Z,1019.52
2019-02-06T02:11:20.988Z,1019.49
2019-02-06T02:11:47.093Z,1019.54
2019-02-06T02:12:13.485Z,1019.54
2019-02-06T02:12:39.622Z,1019.48
2019-02-06T02:13:05.771Z,1019.51
2019-02-06T02:13:32.242Z,1019.54
2019-02-06T02:13:58.373Z,1019.51
2019-02-06T02:14:24.745Z,1019.46
2019-02-06T02:14:50.854Z,1019.45
2019-02-06T02:15:16.954Z,1019.43
2019-02-06T02:15:43.316Z,1019.42
2019-02-06T02:16:09.420Z,1019.45
2019-02-06T02:16:35.530Z,1019.42
2019-02-06T02:17:01.776Z,1019.41
2019-02-06T02:17:27.877Z,1019.37
2019-02-06T02:17:54.266Z,1019.42
2019-02-06T02:18:20.381Z,1019.41
2019-02-06T02:18:46.481Z,1019.42
2019-02-06T02:19:12.792Z,1019.42
2019-02-06T02:19:38.902Z,1019.41
2019-02-06T02:20:05.258Z,1019.41
2019-02-06T02:20:31.399Z,1019.39
2019-02-06T02:20:57.501Z,1019.42
2019-02-06T02:21:23.823Z,1019.45
2019-02-06T02:21:49.955Z,1019.41
2019-02-06T02:22:16.019Z,1019.41
2019-02-06T02:22:42.416Z,1019.43
2019-02-06T02:23:08.513Z,1019.43
2019-02-06T02:23:34.733Z,1019.41
2019-02-06T02:24:00.842Z,1019.4
2019-02-06T02:24:26.968Z,1019.41
2019-02-06T02:24:53.312Z,1019.39
2019-02-06T02:25:19.533Z,1019.39
2019-02-06T02:25:45.639Z,1019.38
2019-02-06T02:26:11.763Z,1019.39
2019-02-06T02:26:37.874Z,1019.43
2019-02-06T02:27:04.332Z,1019.4
2019-02-06T02:27:30.499Z,1019.41
2019-02-06T02:27:56.594Z,1019.42
2019-02-06T02:28:23.152Z,1019.44
2019-02-06T02:28:49.251Z,1019.43
2019-02-06T02:29:15.603Z,1019.42
2019-02-06T02:29:41.840Z,1019.42
2019-02-06T02:30:07.982Z,1019.4
2019-02-06T02:30:34.374Z,1019.41
2019-02-06T02:31:00.489Z,1019.41
2019-02-06T02:31:26.596Z,1019.39
2019-02-06T02:31:53.154Z,1019.38
2019-02-06T02:32:19.254Z,1019.37
2019-02-06T02:32:45.739Z,1019.36
2019-02-06T02:33:11.867Z,1019.33
2019-02-06T02:33:37.999Z,1019.34
2019-02-06T02:34:04.352Z,1019.35
2019-02-06T02:34:30.453Z,1019.31
2019-02-06T02:34:56.559Z,1019.35
2019-02-06T02:35:22.717Z,1019.33
2019-02-06T02:35:48.820Z,1019.27
2019-02-06T02:36:16.934Z,1019.29
2019-02-06T02:36:43.101Z,1019.26
2019-02-06T02:37:09.200Z,1019.27
2019-02-06T02:37:35.611Z,1019.25
2019-02-06T02:38:01.784Z,1019.24
2019-02-06T02:38:27.927Z,1019.26
2019-02-06T02:38:54.061Z,1019.26
2019-02-06T02:39:20.228Z,1019.26
2019-02-06T02:39:46.523Z,1019.22
2019-02-06T02:40:12.626Z,1019.24
2019-02-06T02:40:38.763Z,1019.23
2019-02-06T02:41:05.122Z,1019.24
2019-02-06T02:41:31.333Z,1019.25
2019-02-06T02:41:57.687Z,1019.23
2019-02-06T02:42:23.925Z,1019.21
2019-02-06T02:42:50.219Z,1019.23
2019-02-06T02:43:16.467Z,1019.19
2019-02-06T02:43:42.569Z,1019.21
2019-02-06T02:44:08.675Z,1019.22
2019-02-06T02:44:35.026Z,1019.21
2019-02-06T02:45:01.161Z,1019.16
2019-02-06T02:45:27.288Z,1019.13
2019-02-06T02:45:53.394Z,1019.11
2019-02-06T02:46:19.526Z,1019.12
2019-02-06T02:46:45.650Z,1019.08
2019-02-06T02:47:11.758Z,1019.1
2019-02-06T02:47:37.885Z,1019.07
2019-02-06T02:48:04.172Z,1019.05
2019-02-06T02:48:30.277Z,1019.06
2019-02-06T02:48:56.586Z,1019.04
2019-02-06T02:49:22.696Z,1019.05
2019-02-06T02:49:48.802Z,1019.03
2019-02-06T02:50:14.935Z,1019.03
2019-02-06T02:50:41.044Z,1019.04
2019-02-06T02:51:07.614Z,1019.05
2019-02-06T02:51:33.750Z,1019.03
2019-02-06T02:52:00.192Z,1019.02
2019-02-06T02:52:26.592Z,1019.01
2019-02-06T02:52:52.712Z,1019.02
2019-02-06T02:53:18.817Z,1018.96
2019-02-06T02:53:45.388Z,1018.97
2019-02-06T02:54:11.490Z,1018.9
2019-02-06T02:54:37.708Z,1018.87
2019-02-06T02:55:03.815Z,1018.86
2019-02-06T02:55:29.976Z,1018.86
2019-02-06T02:55:56.106Z,1018.87
2019-02-06T02:56:22.244Z,1018.81
2019-02-06T02:56:48.373Z,1018.78
2019-02-06T02:57:14.715Z,1018.74
2019-02-06T02:57:40.817Z,1018.77
2019-02-06T02:58:07.161Z,1018.77
2019-02-06T02:58:33.257Z,1018.73
2019-02-06T02:58:59.361Z,1018.74
2019-02-06T02:59:25.795Z,1018.75
2019-02-06T02:59:51.922Z,1018.78
2019-02-06T03:00:18.411Z,1018.75
2019-02-06T03:00:44.823Z,1018.82
2019-02-06T03:01:10.956Z,1018.82
2019-02-06T03:01:37.319Z,1018.79
2019-02-06T03:02:03.452Z,1018.84
2019-02-06T03:02:29.553Z,1018.85
2019-02-06T03:02:56.129Z,1018.84
2019-02-06T03:03:22.267Z,1018.84
2019-02-06T03:03:48.591Z,1018.83
2019-02-06T03:04:14.716Z,1018.8
2019-02-06T03:04:40.859Z,1018.81
2019-02-06T03:05:07.192Z,1018.8
2019-02-06T03:05:33.342Z,1018.8
2019-02-06T03:05:59.450Z,1018.8
2019-02-06T03:06:28.683Z,1018.78
2019-02-06T03:06:54.821Z,1018.79
2019-02-06T03:07:21.449Z,1018.8
2019-02-06T03:07:47.553Z,1018.77
2019-02-06T03:08:13.680Z,1018.77
2019-02-06T03:08:39.995Z,1018.78
2019-02-06T03:09:06.102Z,1018.78
2019-02-06T03:09:32.502Z,1018.79
2019-02-06T03:09:58.603Z,1018.74
2019-02-06T03:10:24.742Z,1018.72
2019-02-06T03:10:51.133Z,1018.71
2019-02-06T03:11:17.267Z,1018.66
2019-02-06T03:11:43.426Z,1018.68
2019-02-06T03:12:09.821Z,1018.64
2019-02-06T03:12:35.919Z,1018.68
2019-02-06T03:13:02.274Z,1018.64
2019-02-06T03:13:28.403Z,1018.62
2019-02-06T03:13:54.512Z,1018.6
2019-02-06T03:14:21.109Z,1018.63
2019-02-06T03:14:47.219Z,1018.6
2019-02-06T03:15:13.371Z,1018.63
2019-02-06T03:15:39.682Z,1018.64
2019-02-06T03:16:05.785Z,1018.63
2019-02-06T03:16:32.097Z,1018.6
2019-02-06T03:16:58.210Z,1018.59
2019-02-06T03:17:24.439Z,1018.6
2019-02-06T03:17:50.883Z,1018.59
2019-02-06T03:18:16.984Z,1018.59
2019-02-06T03:18:43.305Z,1018.6
2019-02-06T03:19:09.439Z,1018.59
2019-02-06T03:19:35.584Z,1018.6
2019-02-06T03:20:01.969Z,1018.56
2019-02-06T03:20:28.130Z,1018.57
2019-02-06T03:20:54.277Z,1018.55
2019-02-06T03:21:20.811Z,1018.51
2019-02-06T03:21:46.946Z,1018.51
2019-02-06T03:22:13.153Z,1018.51
2019-02-06T03:22:39.279Z,1018.5
2019-02-06T03:23:05.392Z,1018.47
2019-02-06T03:23:31.802Z,1018.47
2019-02-06T03:23:57.913Z,1018.47
2019-02-06T03:24:24.017Z,1018.47
2019-02-06T03:24:50.366Z,1018.45
2019-02-06T03:25:16.524Z,1018.45
2019-02-06T03:25:42.842Z,1018.47
2019-02-06T03:26:08.971Z,1018.49
2019-02-06T03:26:35.073Z,1018.48
2019-02-06T03:27:01.548Z,1018.46
2019-02-06T03:27:27.644Z,1018.45
2019-02-06T03:27:54.136Z,1018.41
2019-02-06T03:28:20.453Z,1018.43
2019-02-06T03:28:46.554Z,1018.38
2019-02-06T03:29:12.970Z,1018.4
2019-02-06T03:29:39.078Z,1018.36
2019-02-06T03:30:05.239Z,1018.37
2019-02-06T03:30:31.662Z,1018.31
2019-02-06T03:30:57.765Z,1018.28
2019-02-06T03:31:24.094Z,1018.3
2019-02-06T03:31:50.293Z,1018.27
2019-02-06T03:32:16.424Z,1018.24
2019-02-06T03:32:42.853Z,1018.21
2019-02-06T03:33:08.969Z,1018.22
2019-02-06T03:33:35.101Z,1018.18
2019-02-06T03:34:04.456Z,1018.21
2019-02-06T03:34:28.645Z,1018.18
2019-02-06T03:34:54.985Z,1018.17
2019-02-06T03:35:21.243Z,1018.14
2019-02-06T03:35:47.341Z,1018.09
2019-02-06T03:36:13.647Z,1018.1
2019-02-06T03:36:41.015Z,1018.13
2019-02-06T03:37:07.123Z,1018.07
2019-02-06T03:37:33.235Z,1018.11
2019-02-06T03:37:59.333Z,1018.09
2019-02-06T03:38:25.873Z,1018.13
2019-02-06T03:38:51.971Z,1018.1
2019-02-06T03:39:18.107Z,1018.08
2019-02-06T03:39:44.627Z,1018.08
2019-02-06T03:40:10.881Z,1018.06
2019-02-06T03:40:37.032Z,1018.06
2019-02-06T03:41:03.131Z,1018.02
2019-02-06T03:41:29.234Z,1018.04
2019-02-06T03:41:55.579Z,1018.01
2019-02-06T03:42:21.686Z,1018
2019-02-06T03:42:47.815Z,1017.99
2019-02-06T03:43:14.211Z,1017.96
2019-02-06T03:43:40.311Z,1017.96
2019-02-06T03:44:06.805Z,1017.98
2019-02-06T03:44:32.934Z,1017.94
2019-02-06T03:44:59.044Z,1017.99
2019-02-06T03:45:25.688Z,1017.95
2019-02-06T03:45:51.820Z,1017.94
2019-02-06T03:46:17.950Z,1017.94
2019-02-06T03:46:44.265Z,1017.93
2019-02-06T03:47:10.393Z,1017.94
2019-02-06T03:47:36.804Z,1017.94
2019-02-06T03:48:02.930Z,1017.89
2019-02-06T03:48:29.037Z,1017.91
2019-02-06T03:48:55.422Z,1017.91
2019-02-06T03:49:21.530Z,1017.92
2019-02-06T03:49:48.378Z,1017.9
2019-02-06T03:50:14.515Z,1017.9
2019-02-06T03:50:40.680Z,1017.89
2019-02-06T03:51:07.234Z,1017.87
2019-02-06T03:51:33.349Z,1017.83
2019-02-06T03:51:59.450Z,1017.88
2019-02-06T03:52:26.195Z,1017.86
2019-02-06T03:52:52.364Z,1017.82
2019-02-06T03:53:18.828Z,1017.85
2019-02-06T03:53:44.968Z,1017.79
2019-02-06T03:54:11.106Z,1017.74
2019-02-06T03:54:37.447Z,1017.76
2019-02-06T03:55:03.574Z,1017.76
2019-02-06T03:55:29.683Z,1017.69
2019-02-06T03:55:56.045Z,1017.71
2019-02-06T03:56:22.188Z,1017.74
2019-02-06T03:56:48.557Z,1017.72
2019-02-06T03:57:14.660Z,1017.74
2019-02-06T03:57:40.769Z,1017.72
2019-02-06T03:58:07.150Z,1017.75
2019-02-06T03:58:33.251Z,1017.74
2019-02-06T03:58:59.683Z,1017.76
2019-02-06T03:59:25.939Z,1017.75
2019-02-06T03:59:52.044Z,1017.71
2019-02-06T04:00:18.487Z,1017.7
2019-02-06T04:00:44.593Z,1017.75
2019-02-06T04:01:11.416Z,1017.74
2019-02-06T04:01:37.921Z,1017.71
2019-02-06T04:02:04.004Z,1017.74
2019-02-06T04:02:30.420Z,1017.74
2019-02-06T04:02:56.557Z,1017.75
2019-02-06T04:03:22.686Z,1017.76
2019-02-06T04:03:49.034Z,1017.74
2019-02-06T04:04:15.146Z,1017.75
2019-02-06T04:04:41.296Z,1017.74
2019-02-06T04:05:07.631Z,1017.76
2019-02-06T04:05:33.725Z,1017.76
2019-02-06T04:06:00.234Z,1017.79
2019-02-06T04:06:26.368Z,1017.72
2019-02-06T04:07:00.825Z,1017.79
2019-02-06T04:07:20.590Z,1017.81
2019-02-06T04:07:46.702Z,1017.75
2019-02-06T04:08:13.106Z,1017.76
2019-02-06T04:08:39.306Z,1017.75
2019-02-06T04:09:05.411Z,1017.73
2019-02-06T04:09:31.693Z,1017.72
2019-02-06T04:09:57.820Z,1017.71
2019-02-06T04:10:23.959Z,1017.68
2019-02-06T04:10:50.324Z,1017.71
2019-02-06T04:11:16.422Z,1017.69
2019-02-06T04:11:42.826Z,1017.7
2019-02-06T04:12:08.921Z,1017.69
2019-02-06T04:12:35.027Z,1017.67
2019-02-06T04:13:01.424Z,1017.68
2019-02-06T04:13:27.551Z,1017.66
2019-02-06T04:13:53.732Z,1017.7
2019-02-06T04:14:20.114Z,1017.7
2019-02-06T04:14:46.222Z,1017.67
2019-02-06T04:15:12.455Z,1017.7
2019-02-06T04:15:38.556Z,1017.67
2019-02-06T04:16:04.655Z,1017.67
2019-02-06T04:16:31.156Z,1017.7
2019-02-06T04:16:57.264Z,1017.69
2019-02-06T04:17:23.700Z,1017.7
2019-02-06T04:17:49.954Z,1017.68
2019-02-06T04:18:16.086Z,1017.67
2019-02-06T04:18:42.213Z,1017.69
2019-02-06T04:19:08.345Z,1017.66
2019-02-06T04:19:34.452Z,1017.62
2019-02-06T04:20:00.915Z,1017.63
2019-02-06T04:20:26.975Z,1017.63
2019-02-06T04:20:53.387Z,1017.6
2019-02-06T04:21:19.505Z,1017.57
2019-02-06T04:21:45.598Z,1017.59
2019-02-06T04:22:11.742Z,1017.58
2019-02-06T04:22:37.850Z,1017.6
2019-02-06T04:23:03.951Z,1017.59
2019-02-06T04:23:30.359Z,1017.57
2019-02-06T04:23:56.469Z,1017.59
2019-02-06T04:24:23.032Z,1017.6
2019-02-06T04:24:51.653Z,1017.55
2019-02-06T04:25:16.364Z,1017.6
2019-02-06T04:25:42.774Z,1017.63
2019-02-06T04:26:08.917Z,1017.61
2019-02-06T04:26:35.064Z,1017.59
2019-02-06T04:27:01.278Z,1017.61
2019-02-06T04:27:27.387Z,1017.59
2019-02-06T04:27:53.861Z,1017.59
2019-02-06T04:28:19.958Z,1017.55
2019-02-06T04:28:46.072Z,1017.57
2019-02-06T04:29:12.504Z,1017.62
2019-02-06T04:29:38.611Z,1017.61
2019-02-06T04:30:04.744Z,1017.63
2019-02-06T04:30:30.871Z,1017.63
2019-02-06T04:30:57.026Z,1017.67
2019-02-06T04:31:23.355Z,1017.63
2019-02-06T04:31:49.489Z,1017.64
2019-02-06T04:32:15.624Z,1017.63
2019-02-06T04:32:43.014Z,1017.6
2019-02-06T04:33:09.198Z,1017.61
2019-02-06T04:33:35.681Z,1017.63
2019-02-06T04:34:01.820Z,1017.61
2019-02-06T04:34:27.924Z,1017.61
2019-02-06T04:34:54.304Z,1017.64
2019-02-06T04:35:20.448Z,1017.65
2019-02-06T04:35:46.805Z,1017.65
2019-02-06T04:36:13.292Z,1017.64
2019-02-06T04:36:39.392Z,1017.6
2019-02-06T04:37:07.132Z,1017.57
2019-02-06T04:37:33.267Z,1017.5
2019-02-06T04:37:59.464Z,1017.51
2019-02-06T04:38:25.895Z,1017.51
2019-02-06T04:38:52.000Z,1017.46
2019-02-06T04:39:18.569Z,1017.47
2019-02-06T04:39:44.698Z,1017.5
2019-02-06T04:40:10.811Z,1017.51
2019-02-06T04:40:37.223Z,1017.49
2019-02-06T04:41:03.364Z,1017.46
2019-02-06T04:41:29.466Z,1017.5
2019-02-06T04:41:55.767Z,1017.48
2019-02-06T04:42:21.899Z,1017.49
2019-02-06T04:42:48.205Z,1017.52
2019-02-06T04:43:14.376Z,1017.46
2019-02-06T04:43:40.480Z,1017.46
2019-02-06T04:44:06.817Z,1017.45
2019-02-06T04:44:32.922Z,1017.5
2019-02-06T04:44:59.412Z,1017.49
2019-02-06T04:45:25.929Z,1017.45
2019-02-06T04:45:52.035Z,1017.45
2019-02-06T04:46:18.333Z,1017.42
2019-02-06T04:46:44.465Z,1017.43
2019-02-06T04:47:10.570Z,1017.46
2019-02-06T04:47:36.690Z,1017.46
2019-02-06T04:48:02.840Z,1017.47
2019-02-06T04:48:32.079Z,1017.43
2019-02-06T04:48:56.351Z,1017.4
2019-02-06T04:49:22.551Z,1017.44
2019-02-06T04:49:48.901Z,1017.44
2019-02-06T04:50:14.997Z,1017.4
2019-02-06T04:50:41.102Z,1017.47
2019-02-06T04:51:07.549Z,1017.49
2019-02-06T04:51:33.663Z,1017.47
2019-02-06T04:51:59.829Z,1017.45
2019-02-06T04:52:25.935Z,1017.48
2019-02-06T04:52:52.042Z,1017.46
2019-02-06T04:53:18.418Z,1017.42
2019-02-06T04:53:44.522Z,1017.41
2019-02-06T04:54:10.770Z,1017.4
2019-02-06T04:54:36.921Z,1017.44
2019-02-06T04:55:03.029Z,1017.41
2019-02-06T04:55:29.430Z,1017.41
2019-02-06T04:55:55.532Z,1017.4
2019-02-06T04:56:21.641Z,1017.43
2019-02-06T04:56:47.773Z,1017.44
2019-02-06T04:57:14.786Z,1017.41
2019-02-06T04:57:41.228Z,1017.41
2019-02-06T04:58:07.353Z,1017.44
2019-02-06T04:58:33.466Z,1017.42
2019-02-06T04:58:59.901Z,1017.4
2019-02-06T04:59:26.036Z,1017.36
2019-02-06T04:59:52.140Z,1017.4
2019-02-06T05:00:18.784Z,1017.4
2019-02-06T05:00:44.897Z,1017.38
2019-02-06T05:01:11.238Z,1017.35
2019-02-06T05:01:37.373Z,1017.35
2019-02-06T05:02:03.568Z,1017.34
2019-02-06T05:02:29.977Z,1017.36
2019-02-06T05:02:56.114Z,1017.35
2019-02-06T05:03:22.222Z,1017.34
2019-02-06T05:03:49.368Z,1017.34
2019-02-06T05:04:15.468Z,1017.34
2019-02-06T05:04:41.785Z,1017.33
2019-02-06T05:05:07.921Z,1017.35
2019-02-06T05:05:34.150Z,1017.34
2019-02-06T05:06:01.023Z,1017.32
2019-02-06T05:06:27.128Z,1017.3
2019-02-06T05:06:53.490Z,1017.33
2019-02-06T05:07:21.585Z,1017.32
2019-02-06T05:07:47.689Z,1017.32
2019-02-06T05:08:13.808Z,1017.27
2019-02-06T05:08:39.907Z,1017.31
2019-02-06T05:09:06.007Z,1017.33
2019-02-06T05:09:32.463Z,1017.32
2019-02-06T05:09:58.564Z,1017.31
2019-02-06T05:10:24.957Z,1017.33
2019-02-06T05:10:51.182Z,1017.26
2019-02-06T05:11:17.321Z,1017.26
2019-02-06T05:11:43.484Z,1017.25
2019-02-06T05:12:09.755Z,1017.31
2019-02-06T05:12:35.874Z,1017.29
2019-02-06T05:13:02.310Z,1017.28
2019-02-06T05:13:28.450Z,1017.29
2019-02-06T05:13:54.862Z,1017.28
2019-02-06T05:14:21.070Z,1017.24
2019-02-06T05:14:47.130Z,1017.27
2019-02-06T05:15:13.550Z,1017.26
2019-02-06T05:15:39.648Z,1017.27
2019-02-06T05:16:05.776Z,1017.29
2019-02-06T05:16:32.035Z,1017.26
2019-02-06T05:16:58.141Z,1017.29
2019-02-06T05:17:24.273Z,1017.3
2019-02-06T05:17:50.380Z,1017.26
2019-02-06T05:18:16.925Z,1017.23
2019-02-06T05:18:43.059Z,1017.31
2019-02-06T05:19:09.157Z,1017.28